Time;durP1;ratioP1;P1;durP2;ratioP2;P2;SDS_P1;SDS_P2;PMS_P1;PMS_P2;Temp;Humidity;BMP_temperature;BMP_pressure;BME280_temperature;BME280_humidity;BME280_pressure;Samples;Min_cycle;Max_cycle;Signal;HPM_P1;HPM_P2
2022/12/22 05:02:06;;;;;;;2.60;2.40;;;7.60;99.90;;;;;;5222258;23;20287;-67
2022/12/22 05:04:33;;;;;;;3.90;3.50;;;7.60;99.90;;;;;;4971425;28;20329;-67
2022/12/22 05:06:59;;;;;;;4.45;4.07;;;7.60;99.90;;;;;;4973860;28;20324;-67
2022/12/22 05:09:26;;;;;;;2.53;2.40;;;7.50;99.90;;;;;;4972726;28;20602;-67
2022/12/22 05:11:53;;;;;;;4.35;3.00;;;7.60;99.90;;;;;;4966123;28;20235;-67
2022/12/22 05:14:19;;;;;;;6.90;3.90;;;7.50;99.90;;;;;;4964515;28;20658;-67
2022/12/22 05:16:46;;;;;;;4.75;3.90;;;7.50;99.90;;;;;;4989522;23;20243;-66
2022/12/22 05:19:14;;;;;;;4.40;4.07;;;7.50;99.90;;;;;;4948871;29;20252;-66
2022/12/22 05:21:41;;;;;;;7.80;4.32;;;7.50;99.90;;;;;;4952625;29;20223;-66
2022/12/22 05:24:08;;;;;;;2.83;2.83;;;7.50;99.90;;;;;;4943256;29;20235;-66
2022/12/22 05:26:35;;;;;;;4.03;3.50;;;7.50;99.90;;;;;;4942617;29;20232;-67
2022/12/22 05:29:01;;;;;;;4.90;3.88;;;7.50;99.90;;;;;;4944161;29;20368;-66
2022/12/22 05:31:28;;;;;;;4.45;4.03;;;7.50;99.90;;;;;;4946127;29;20224;-67
2022/12/22 05:33:55;;;;;;;6.22;3.55;;;7.50;99.90;;;;;;4938687;29;20731;-66
2022/12/22 05:36:23;;;;;;;5.45;2.45;;;7.50;99.90;;;;;;4944137;28;20235;-64
2022/12/22 05:38:50;;;;;;;9.38;2.60;;;7.40;99.90;;;;;;4952646;29;20207;-65
2022/12/22 05:41:16;;;;;;;4.90;2.30;;;7.40;99.90;;;;;;4952840;29;20207;-66
2022/12/22 05:43:43;;;;;;;2.28;2.17;;;7.40;99.90;;;;;;4937563;29;20271;-67
2022/12/22 05:46:11;;;;;;;3.47;2.85;;;7.40;99.90;;;;;;4950065;29;20616;-65
2022/12/22 05:48:38;;;;;;;2.05;1.95;;;7.40;99.90;;;;;;4937101;29;20631;-66
2022/12/22 05:51:05;;;;;;;4.20;3.38;;;7.40;99.90;;;;;;4940898;29;20670;-66
2022/12/22 05:53:33;;;;;;;3.00;2.88;;;7.40;99.90;;;;;;4949168;29;20286;-65
2022/12/22 05:56:00;;;;;;;7.38;3.72;;;7.40;99.90;;;;;;4950408;28;20238;-65
2022/12/22 05:58:27;;;;;;;2.83;2.50;;;7.40;99.90;;;;;;4952657;29;20211;-66
2022/12/22 06:00:57;;;;;;;4.32;3.45;;;7.40;99.90;;;;;;4950176;29;20231;-67
2022/12/22 06:03:24;;;;;;;5.22;3.42;;;7.40;99.90;;;;;;4941341;29;20205;-67
2022/12/22 06:05:50;;;;;;;4.13;2.97;;;7.40;99.90;;;;;;4935679;28;20278;-65
2022/12/22 06:08:17;;;;;;;6.65;4.03;;;7.40;99.90;;;;;;4948575;29;20221;-66
2022/12/22 06:10:45;;;;;;;3.92;3.17;;;7.40;99.90;;;;;;4945761;29;20215;-67
2022/12/22 06:13:12;;;;;;;14.48;4.57;;;7.40;99.90;;;;;;4949892;29;20227;-67
2022/12/22 06:15:39;;;;;;;3.63;3.35;;;7.40;99.90;;;;;;4946803;28;20227;-67
2022/12/22 06:18:05;;;;;;;5.47;5.07;;;7.40;99.90;;;;;;4946176;29;20266;-66
2022/12/22 06:20:32;;;;;;;5.00;3.58;;;7.40;99.90;;;;;;4951430;29;20212;-67
2022/12/22 06:22:59;;;;;;;5.25;2.50;;;7.40;99.90;;;;;;4943194;29;20218;-66
2022/12/22 06:25:26;;;;;;;4.20;3.40;;;7.40;99.90;;;;;;4942872;29;20207;-67
2022/12/22 06:27:54;;;;;;;5.38;4.93;;;7.40;99.90;;;;;;4943783;29;20588;-67
2022/12/22 06:30:20;;;;;;;5.45;5.05;;;7.40;99.90;;;;;;4951769;29;20215;-65
2022/12/22 06:32:47;;;;;;;5.57;5.07;;;7.40;99.90;;;;;;4945578;29;20231;-67
2022/12/22 06:35:14;;;;;;;2.85;2.72;;;7.50;99.90;;;;;;4942322;29;20211;-67
2022/12/22 06:37:41;;;;;;;6.90;4.63;;;7.50;99.90;;;;;;4948644;29;20240;-67
2022/12/22 06:40:09;;;;;;;4.43;3.30;;;7.50;99.90;;;;;;4951085;29;20693;-67
2022/12/22 06:45:22;;;;;;;3.58;3.30;;;7.50;99.90;;;;;;4951192;29;20266;-67
2022/12/22 06:47:48;;;;;;;4.57;4.15;;;7.50;99.90;;;;;;4949356;28;20282;-68
2022/12/22 06:50:15;;;;;;;4.43;3.75;;;7.50;99.90;;;;;;4949355;29;20258;-67
2022/12/22 06:52:42;;;;;;;12.85;4.35;;;7.40;99.90;;;;;;4944034;29;20240;-68
2022/12/22 06:55:09;;;;;;;3.78;2.88;;;7.40;99.90;;;;;;4939812;29;20592;-67
2022/12/22 06:57:35;;;;;;;5.25;2.60;;;7.40;99.90;;;;;;4943322;29;20227;-67
2022/12/22 07:00:03;;;;;;;7.22;3.63;;;7.40;99.90;;;;;;4940062;29;20208;-66
2022/12/22 07:02:31;;;;;;;4.53;4.13;;;7.40;99.90;;;;;;4948967;29;20223;-67
2022/12/22 07:04:58;;;;;;;4.30;3.90;;;7.40;99.90;;;;;;4944840;29;20270;-67
2022/12/22 07:07:25;;;;;;;11.23;6.25;;;7.40;99.90;;;;;;4945811;28;20226;-67
2022/12/22 07:09:51;;;;;;;5.55;4.65;;;7.40;99.90;;;;;;4953654;29;20219;-67
2022/12/22 07:12:18;;;;;;;4.70;4.15;;;7.40;99.90;;;;;;4953743;29;20220;-67
2022/12/22 07:14:45;;;;;;;3.50;3.30;;;7.50;99.90;;;;;;4945054;29;20218;-67
2022/12/22 07:17:11;;;;;;;5.10;2.78;;;7.50;99.90;;;;;;4953669;28;20286;-66
2022/12/22 07:19:40;;;;;;;3.03;2.72;;;7.50;99.90;;;;;;4956616;29;20232;-66
2022/12/22 07:22:07;;;;;;;5.60;4.90;;;7.40;99.90;;;;;;4950002;29;20212;-67
2022/12/22 07:24:34;;;;;;;7.03;4.18;;;7.40;99.90;;;;;;4941075;29;20207;-67
2022/12/22 07:27:00;;;;;;;13.45;3.22;;;7.40;99.90;;;;;;4953659;28;20222;-67
2022/12/22 07:29:27;;;;;;;5.32;4.93;;;7.40;99.90;;;;;;4953892;29;20227;-67
2022/12/22 07:31:54;;;;;;;6.63;3.97;;;7.50;99.90;;;;;;4947733;29;20231;-67
2022/12/22 07:34:20;;;;;;;9.93;3.95;;;7.40;99.90;;;;;;4955227;29;20299;-67
2022/12/22 07:36:49;;;;;;;6.18;3.92;;;7.40;99.90;;;;;;4950331;28;20235;-66
2022/12/22 07:39:15;;;;;;;5.88;4.85;;;7.50;99.90;;;;;;4952848;29;20212;-66
2022/12/22 07:44:26;;;;;;;5.82;4.43;;;7.40;99.90;;;;;;4936790;29;20219;-66
2022/12/22 07:46:53;;;;;;;2.35;2.25;;;7.40;99.90;;;;;;4950492;28;20236;-67
2022/12/22 07:52:05;;;;;;;5.70;3.70;;;7.40;99.90;;;;;;4951667;29;20234;-66
2022/12/22 07:54:34;;;;;;;3.03;2.42;;;7.50;99.90;;;;;;4948735;29;20287;-66
2022/12/22 07:57:01;;;;;;;5.50;3.35;;;7.50;99.90;;;;;;4948904;28;20303;-67
2022/12/22 07:59:28;;;;;;;8.27;4.40;;;7.50;99.90;;;;;;4948265;29;20208;-66
2022/12/22 08:01:54;;;;;;;5.97;4.68;;;7.50;99.90;;;;;;4942521;29;20293;-65
2022/12/22 08:04:21;;;;;;;9.07;6.13;;;7.50;99.90;;;;;;4951495;29;20203;-65
2022/12/22 08:06:48;;;;;;;7.68;6.60;;;7.50;99.90;;;;;;4949890;28;20342;-66
2022/12/22 08:09:20;;;;;;;10.02;8.30;;;7.50;99.90;;;;;;4947648;29;20259;-65
2022/12/22 08:11:47;;;;;;;9.32;5.97;;;7.50;99.90;;;;;;4951018;28;20211;-65
2022/12/22 08:14:14;;;;;;;12.60;7.20;;;7.50;99.90;;;;;;4952219;29;20318;-65
2022/12/22 08:16:41;;;;;;;10.57;7.90;;;7.50;99.90;;;;;;4947522;29;20236;-65
2022/12/22 08:19:08;;;;;;;6.65;5.93;;;7.50;99.90;;;;;;4950246;29;20211;-66
2022/12/22 08:21:35;;;;;;;4.95;4.38;;;7.50;99.90;;;;;;4951242;29;20212;-65
2022/12/22 08:24:01;;;;;;;8.80;8.07;;;7.50;99.90;;;;;;4938236;29;20613;-65
2022/12/22 08:26:32;;;;;;;9.52;6.72;;;7.60;99.90;;;;;;4952481;29;20294;-66
2022/12/22 08:29:03;;;;;;;3.83;3.53;;;7.60;99.90;;;;;;4950204;29;20216;-65
2022/12/22 08:31:31;;;;;;;5.70;4.63;;;7.60;99.90;;;;;;4940671;29;20227;-66
2022/12/22 08:34:02;;;;;;;9.93;7.13;;;7.60;99.90;;;;;;4938219;29;20316;-66
2022/12/22 08:36:30;;;;;;;5.35;4.95;;;7.60;99.90;;;;;;4948626;28;20698;-66
2022/12/22 08:38:57;;;;;;;9.57;8.40;;;7.60;99.90;;;;;;4945830;29;20582;-66
2022/12/22 08:44:06;;;;;;;10.25;4.93;;;7.70;99.90;;;;;;4950504;29;20211;-66
2022/12/22 08:46:33;;;;;;;6.95;5.47;;;7.70;99.90;;;;;;4947386;29;20235;-66
2022/12/22 08:49:00;;;;;;;5.28;4.63;;;7.70;99.90;;;;;;4940294;29;20211;-67
2022/12/22 08:51:26;;;;;;;14.80;7.78;;;7.70;99.90;;;;;;4950677;29;20208;-66
2022/12/22 08:53:53;;;;;;;14.98;8.38;;;7.70;99.90;;;;;;4950326;29;20265;-65
2022/12/22 08:56:20;;;;;;;14.73;8.88;;;7.70;99.90;;;;;;4951345;28;20323;-65
2022/12/22 08:58:46;;;;;;;15.65;9.90;;;7.70;99.90;;;;;;4939316;29;20280;-65
2022/12/22 09:01:17;;;;;;;23.60;17.38;;;7.70;99.90;;;;;;4935351;29;20216;-65
2022/12/22 09:03:48;;;;;;;18.70;13.18;;;7.70;99.90;;;;;;4949758;29;20201;-66
2022/12/22 09:06:15;;;;;;;7.53;5.43;;;7.70;99.90;;;;;;4941166;29;20319;-65
2022/12/22 09:08:42;;;;;;;10.57;8.07;;;7.70;99.90;;;;;;4942279;29;20220;-65
2022/12/22 09:11:08;;;;;;;3.88;3.58;;;7.70;99.90;;;;;;4942902;29;20219;-66
2022/12/22 09:13:35;;;;;;;4.85;4.35;;;7.70;99.90;;;;;;4952030;29;20241;-66
2022/12/22 09:16:05;;;;;;;5.07;3.53;;;7.70;99.90;;;;;;4947996;28;20326;-66
2022/12/22 09:18:33;;;;;;;8.15;3.45;;;7.70;99.90;;;;;;4939887;29;20220;-66
2022/12/22 09:21:00;;;;;;;4.50;3.92;;;7.70;99.90;;;;;;4944992;29;20216;-66
2022/12/22 09:23:27;;;;;;;5.28;4.93;;;7.70;99.90;;;;;;4949986;28;20214;-66
2022/12/22 09:25:53;;;;;;;5.43;3.42;;;7.80;99.90;;;;;;4950657;28;20256;-66
2022/12/22 09:28:20;;;;;;;9.88;5.38;;;7.80;99.90;;;;;;4951334;29;20210;-66
2022/12/22 09:30:50;;;;;;;20.48;12.18;;;7.80;99.90;;;;;;4949978;29;20666;-66
2022/12/22 09:33:16;;;;;;;12.02;7.18;;;7.80;99.90;;;;;;4951551;29;20259;-66
2022/12/22 09:35:44;;;;;;;15.80;10.38;;;7.90;99.90;;;;;;4945222;29;20211;-66
2022/12/22 09:38:11;;;;;;;21.02;14.05;;;7.90;99.90;;;;;;4951646;28;20203;-66
2022/12/22 09:40:38;;;;;;;16.77;8.20;;;7.90;99.90;;;;;;4952053;29;20250;-67
2022/12/22 09:43:05;;;;;;;10.13;6.60;;;7.90;99.90;;;;;;4947383;29;20646;-66
2022/12/22 09:45:32;;;;;;;11.43;8.60;;;8.00;99.90;;;;;;4940511;28;20220;-66
2022/12/22 09:48:00;;;;;;;8.38;5.10;;;8.00;99.90;;;;;;4948556;29;20216;-66
2022/12/22 09:50:28;;;;;;;13.27;9.98;;;7.90;99.90;;;;;;4943951;29;20207;-66
2022/12/22 09:52:59;;;;;;;15.43;7.28;;;7.90;99.90;;;;;;4947547;29;20232;-65
2022/12/22 09:55:40;;;;;;;4.32;4.03;;;7.90;99.90;;;;;;4950264;29;20624;-66
2022/12/22 09:58:17;;;;;;;7.40;3.60;;;7.90;99.90;;;;;;4940624;29;20553;-66
2022/12/22 10:00:47;;;;;;;4.60;3.65;;;7.90;99.90;;;;;;4943714;29;20356;-66
2022/12/22 10:03:31;;;;;;;8.27;5.30;;;7.90;99.90;;;;;;4947364;29;20219;-66
2022/12/22 10:06:08;;;;;;;4.05;3.67;;;8.00;99.90;;;;;;4941475;29;20237;-67
2022/12/22 10:08:39;;;;;;;3.78;3.47;;;8.10;99.90;;;;;;4951395;29;20214;-65
2022/12/22 10:11:06;;;;;;;3.63;3.08;;;8.10;99.90;;;;;;4948537;29;20216;-65
2022/12/22 10:13:33;;;;;;;2.47;2.38;;;8.20;99.90;;;;;;4940984;29;20590;-65
2022/12/22 10:16:00;;;;;;;4.75;4.03;;;8.20;99.90;;;;;;4943891;29;20236;-65
2022/12/22 10:18:29;;;;;;;3.85;3.55;;;8.20;99.90;;;;;;4951967;29;20209;-66
2022/12/22 10:21:11;;;;;;;5.00;3.03;;;8.20;99.90;;;;;;4948152;29;20216;-66
2022/12/22 10:23:41;;;;;;;5.95;4.68;;;8.20;99.90;;;;;;4950944;29;20565;-66
2022/12/22 10:26:12;;;;;;;8.45;5.57;;;8.20;99.90;;;;;;4944726;29;20232;-66
2022/12/22 10:28:43;;;;;;;6.07;5.55;;;8.20;99.90;;;;;;4944452;29;20261;-67
2022/12/22 10:31:14;;;;;;;6.47;5.97;;;8.30;99.90;;;;;;4941959;29;20675;-67
2022/12/22 10:33:42;;;;;;;9.30;7.93;;;8.40;99.90;;;;;;4943184;29;20752;-66
2022/12/22 10:36:09;;;;;;;11.57;8.10;;;8.40;99.90;;;;;;4942768;29;20280;-66
2022/12/22 10:38:40;;;;;;;4.63;4.28;;;8.40;99.90;;;;;;4944785;29;20276;-66
2022/12/22 10:41:13;;;;;;;4.97;4.47;;;8.40;99.90;;;;;;4948929;29;20224;-66
2022/12/22 10:43:48;;;;;;;5.63;3.92;;;8.40;99.90;;;;;;4948212;29;20207;-67
2022/12/22 10:46:15;;;;;;;9.88;4.28;;;8.50;99.90;;;;;;4936011;29;20243;-69
2022/12/22 10:48:41;;;;;;;7.45;5.18;;;8.60;99.90;;;;;;4938564;29;20265;-67
2022/12/22 10:51:13;;;;;;;3.95;3.65;;;8.70;99.90;;;;;;4947692;29;20663;-67
2022/12/22 10:53:47;;;;;;;4.80;3.58;;;8.80;99.90;;;;;;4943953;29;20285;-66
2022/12/22 10:56:26;;;;;;;8.15;4.40;;;8.80;99.90;;;;;;4943389;29;20236;-66
2022/12/22 10:58:54;;;;;;;4.40;4.07;;;8.90;99.90;;;;;;4942105;29;20282;-66
2022/12/22 11:01:27;;;;;;;5.18;3.15;;;8.90;99.90;;;;;;4947516;29;20275;-67
2022/12/22 11:03:54;;;;;;;4.07;3.67;;;8.90;99.90;;;;;;4942937;29;20234;-68
2022/12/22 11:06:20;;;;;;;4.40;3.30;;;9.00;99.90;;;;;;4947010;29;20719;-67
2022/12/22 11:08:49;;;;;;;5.60;3.67;;;9.00;99.90;;;;;;4935867;29;20221;-66
2022/12/22 11:11:33;;;;;;;4.25;3.50;;;9.10;99.90;;;;;;4945303;29;20568;-66
2022/12/22 11:14:14;;;;;;;6.78;4.78;;;9.10;99.90;;;;;;4946113;29;20229;-66
2022/12/22 11:16:46;;;;;;;4.13;3.65;;;9.10;99.90;;;;;;4945422;29;20249;-67
2022/12/22 11:19:34;;;;;;;13.57;4.65;;;9.10;99.90;;;;;;4950870;29;20565;-67
2022/12/22 11:22:12;;;;;;;11.55;5.68;;;9.10;99.90;;;;;;4947022;29;20221;-66
2022/12/22 11:24:48;;;;;;;6.60;5.18;;;9.10;99.90;;;;;;4945094;29;20240;-66
2022/12/22 11:27:29;;;;;;;4.95;3.92;;;9.10;99.90;;;;;;4936820;29;20259;-66
2022/12/22 11:30:04;;;;;;;4.97;4.50;;;9.10;99.90;;;;;;4944070;29;20203;-66
2022/12/22 11:32:52;;;;;;;4.28;2.55;;;9.10;99.90;;;;;;4973763;23;20228;-70
2022/12/22 11:35:30;;;;;;;8.05;5.50;;;9.10;99.90;;;;;;4945577;28;20214;-70
2022/12/22 11:38:04;;;;;;;3.55;3.20;;;9.00;99.90;;;;;;4951504;29;20234;-69
2022/12/22 11:40:37;;;;;;;4.93;4.53;;;9.00;99.90;;;;;;4951592;29;20206;-69
2022/12/22 11:43:20;;;;;;;7.00;3.50;;;9.00;99.90;;;;;;4924124;29;20208;-69
2022/12/22 11:45:57;;;;;;;7.03;5.07;;;9.00;99.90;;;;;;4921984;29;20219;-69
2022/12/22 11:48:45;;;;;;;5.85;5.20;;;9.00;99.90;;;;;;4917323;29;20231;-68
2022/12/22 11:51:19;;;;;;;4.28;3.95;;;9.00;99.90;;;;;;4929390;29;20250;-68
2022/12/22 11:54:02;;;;;;;18.08;5.35;;;9.00;99.90;;;;;;4926191;29;20232;-69
2022/12/22 11:56:33;;;;;;;5.38;4.93;;;8.90;99.90;;;;;;4924817;29;20205;-68
2022/12/22 11:59:26;;;;;;;8.27;4.38;;;8.90;99.90;;;;;;4917594;29;20300;-68
2022/12/22 12:02:19;;;;;;;5.15;4.72;;;8.90;99.90;;;;;;4926823;29;20233;-68
2022/12/22 12:05:14;;;;;;;5.70;5.10;;;9.00;99.90;;;;;;4929241;29;20566;-68
2022/12/22 12:07:45;;;;;;;4.55;2.45;;;9.00;99.90;;;;;;4930462;29;20599;-70
2022/12/22 12:10:17;;;;;;;6.43;4.55;;;8.90;99.90;;;;;;4935418;29;20576;-68
2022/12/22 12:12:54;;;;;;;7.68;5.03;;;9.00;99.90;;;;;;4929390;29;20293;-68
2022/12/22 12:15:28;;;;;;;7.13;4.53;;;9.00;99.90;;;;;;4925050;29;20585;-67
2022/12/22 12:18:25;;;;;;;3.90;3.40;;;9.00;99.90;;;;;;4919902;29;20221;-68
2022/12/22 12:21:05;;;;;;;7.63;5.80;;;9.00;99.90;;;;;;4925641;29;20683;-69
2022/12/22 12:23:57;;;;;;;6.82;4.15;;;8.90;99.90;;;;;;4928442;29;20347;-68
2022/12/22 12:26:28;;;;;;;4.25;3.42;;;8.90;99.90;;;;;;4924838;29;20235;-68
2022/12/22 12:29:11;;;;;;;10.75;7.60;;;8.90;99.90;;;;;;4917420;29;20217;-69
2022/12/22 12:31:41;;;;;;;8.60;5.40;;;8.90;99.90;;;;;;4926260;29;20605;-69
2022/12/22 12:34:12;;;;;;;7.55;5.68;;;8.90;99.90;;;;;;4931837;29;20534;-68
2022/12/22 12:36:45;;;;;;;9.63;5.07;;;8.90;99.90;;;;;;4915973;29;20236;-68
2022/12/22 12:39:17;;;;;;;6.70;5.18;;;8.80;99.90;;;;;;4916436;29;20308;-68
2022/12/22 12:41:51;;;;;;;8.35;5.72;;;8.80;99.90;;;;;;4915986;29;20231;-68
2022/12/22 12:44:23;;;;;;;4.78;4.03;;;8.70;99.90;;;;;;4922808;29;20269;-68
2022/12/22 12:47:21;;;;;;;12.57;7.03;;;8.70;99.90;;;;;;4915702;29;20229;-70
2022/12/22 12:50:01;;;;;;;6.15;4.70;;;8.70;99.90;;;;;;4916541;29;20245;-68
2022/12/22 12:53:14;;;;;;;5.03;4.15;;;8.70;99.90;;;;;;4918685;29;20233;-69
2022/12/22 12:56:01;;;;;;;6.32;4.25;;;8.60;99.90;;;;;;4924230;29;20237;-69
2022/12/22 12:58:52;;;;;;;7.90;4.78;;;8.60;99.90;;;;;;4923706;29;20216;-69
2022/12/22 13:01:59;;;;;;;7.72;3.45;;;8.50;99.90;;;;;;4901832;29;20551;-69
2022/12/22 13:05:11;;;;;;;6.53;3.60;;;8.50;99.90;;;;;;4915883;29;20680;-68
2022/12/22 13:08:10;;;;;;;10.38;5.90;;;8.50;99.90;;;;;;4918833;29;20240;-69
2022/12/22 13:10:40;;;;;;;3.85;3.08;;;8.40;99.90;;;;;;4935007;29;20228;-69
2022/12/22 13:13:11;;;;;;;5.80;4.35;;;8.40;99.90;;;;;;4935220;29;20215;-69
2022/12/22 13:15:40;;;;;;;5.90;5.13;;;8.40;99.90;;;;;;4928899;29;20220;-69
2022/12/22 13:18:42;;;;;;;8.25;4.80;;;8.40;99.90;;;;;;4934527;29;20275;-69
2022/12/22 13:21:14;;;;;;;15.20;5.55;;;8.40;99.90;;;;;;4934303;29;20584;-69
2022/12/22 13:23:43;;;;;;;11.30;5.65;;;8.40;99.90;;;;;;4934833;29;20562;-68
2022/12/22 13:26:13;;;;;;;9.48;6.82;;;8.40;99.90;;;;;;4931620;29;20212;-69
2022/12/22 13:28:42;;;;;;;4.50;4.20;;;8.40;99.90;;;;;;4926384;29;20210;-68
2022/12/22 13:31:18;;;;;;;5.90;5.40;;;8.40;99.90;;;;;;4934527;29;20240;-69
2022/12/22 13:33:52;;;;;;;7.60;5.07;;;8.40;99.90;;;;;;4946588;29;20224;-68
2022/12/22 13:36:21;;;;;;;11.40;3.92;;;8.40;99.90;;;;;;4939710;29;20237;-68
2022/12/22 13:38:59;;;;;;;3.85;2.60;;;8.30;99.90;;;;;;4945132;29;20215;-68
2022/12/22 13:41:27;;;;;;;12.05;5.18;;;8.30;99.90;;;;;;4944334;29;20300;-69
2022/12/22 13:43:57;;;;;;;10.32;5.95;;;8.30;99.90;;;;;;4939243;29;20236;-68
2022/12/22 13:46:24;;;;;;;5.18;3.55;;;8.30;99.90;;;;;;4935452;29;20217;-69
2022/12/22 13:48:56;;;;;;;11.07;5.60;;;8.30;99.90;;;;;;4925532;29;20229;-69
2022/12/22 13:51:26;;;;;;;13.68;6.68;;;8.30;99.90;;;;;;4929324;29;20231;-68
2022/12/22 13:53:56;;;;;;;13.18;5.22;;;8.30;99.90;;;;;;4933027;29;20714;-69
2022/12/22 13:56:27;;;;;;;6.75;3.92;;;8.20;99.90;;;;;;4931352;29;20615;-69
2022/12/22 13:58:57;;;;;;;8.77;7.28;;;8.20;99.90;;;;;;4935902;29;20212;-68
2022/12/22 14:01:24;;;;;;;9.18;5.75;;;8.20;99.90;;;;;;4924963;29;20256;-70
2022/12/22 14:03:56;;;;;;;5.55;4.85;;;8.20;99.90;;;;;;4932786;29;20205;-68
2022/12/22 14:06:28;;;;;;;16.40;4.85;;;8.10;99.90;;;;;;4921449;29;20670;-68
2022/12/22 14:09:08;;;;;;;6.00;5.40;;;8.10;99.90;;;;;;4929030;29;20220;-68
2022/12/22 14:11:35;;;;;;;6.47;5.88;;;8.00;99.90;;;;;;4926145;29;20555;-68
2022/12/22 14:14:06;;;;;;;12.00;7.47;;;8.00;99.90;;;;;;4931196;29;20231;-68
2022/12/22 14:16:33;;;;;;;6.68;5.35;;;8.00;99.90;;;;;;4933281;29;20213;-68
2022/12/22 14:19:01;;;;;;;10.25;5.05;;;7.90;99.90;;;;;;4933067;29;20258;-68
2022/12/22 14:21:28;;;;;;;20.33;5.95;;;7.90;99.90;;;;;;4927874;29;20233;-69
2022/12/22 14:23:54;;;;;;;7.90;5.63;;;7.90;99.90;;;;;;4920059;29;20251;-68
2022/12/22 14:26:28;;;;;;;3.88;3.45;;;7.80;99.90;;;;;;4933349;29;20205;-69
2022/12/22 14:28:56;;;;;;;11.57;7.03;;;7.80;99.90;;;;;;4934337;29;20224;-68
2022/12/22 14:31:24;;;;;;;10.18;4.13;;;7.70;99.90;;;;;;4933315;29;20256;-68
2022/12/22 14:33:53;;;;;;;12.57;7.15;;;7.70;99.90;;;;;;4932049;29;20271;-68
2022/12/22 14:36:23;;;;;;;22.95;13.57;;;7.60;99.90;;;;;;4930795;29;20208;-68
2022/12/22 14:38:52;;;;;;;10.20;6.30;;;7.50;99.90;;;;;;4931285;29;20636;-68
2022/12/22 14:41:41;;;;;;;11.88;5.35;;;7.40;99.90;;;;;;4928488;29;20347;-68
2022/12/22 14:44:14;;;;;;;12.38;6.75;;;7.40;99.90;;;;;;4929634;29;20282;-70
2022/12/22 14:46:42;;;;;;;8.18;6.25;;;7.30;99.90;;;;;;4925063;29;20223;-69
2022/12/22 14:49:13;;;;;;;7.95;4.18;;;7.30;99.90;;;;;;4929251;29;20278;-68
2022/12/22 14:51:42;;;;;;;14.18;10.30;;;7.20;99.90;;;;;;4926203;29;20252;-68
2022/12/22 14:54:19;;;;;;;10.40;6.88;;;7.10;99.90;;;;;;4926677;29;20271;-69
2022/12/22 14:56:48;;;;;;;11.18;6.35;;;7.00;99.90;;;;;;4932240;29;20266;-68
2022/12/22 14:59:23;;;;;;;6.35;5.43;;;7.00;99.90;;;;;;4924603;29;20700;-68
2022/12/22 15:01:58;;;;;;;10.38;5.47;;;7.00;99.90;;;;;;4927099;29;20232;-69
2022/12/22 15:04:24;;;;;;;9.52;4.45;;;6.90;99.90;;;;;;4924928;29;20230;-68
2022/12/22 15:07:05;;;;;;;5.35;4.45;;;6.90;99.90;;;;;;4916748;29;20692;-69
2022/12/22 15:09:32;;;;;;;13.23;6.63;;;6.80;99.90;;;;;;4923372;29;20216;-68
2022/12/22 15:12:10;;;;;;;3.45;2.67;;;6.70;99.90;;;;;;4923530;29;20306;-68
2022/12/22 15:14:38;;;;;;;6.88;6.30;;;6.70;99.90;;;;;;4928012;29;20232;-68
2022/12/22 15:17:07;;;;;;;9.18;4.68;;;6.70;99.90;;;;;;4928174;29;20263;-68
2022/12/22 15:19:36;;;;;;;5.18;4.60;;;6.60;99.90;;;;;;4931079;29;20220;-69
2022/12/22 15:22:07;;;;;;;9.65;5.05;;;6.60;99.90;;;;;;4926271;29;20734;-68
2022/12/22 15:24:33;;;;;;;6.07;4.43;;;6.50;99.90;;;;;;4934148;29;20312;-69
2022/12/22 15:27:00;;;;;;;8.00;7.22;;;6.50;99.90;;;;;;4932514;29;20215;-68
2022/12/22 15:29:27;;;;;;;12.27;5.93;;;6.40;99.90;;;;;;4936527;29;20204;-69
2022/12/22 15:31:53;;;;;;;5.60;4.88;;;6.30;99.90;;;;;;4932448;29;20248;-69
2022/12/22 15:34:24;;;;;;;5.72;4.97;;;6.30;99.90;;;;;;4934615;29;20279;-69
2022/12/22 15:36:51;;;;;;;8.25;6.38;;;6.30;99.90;;;;;;4923352;29;20252;-69
2022/12/22 15:39:22;;;;;;;12.77;4.68;;;6.20;99.90;;;;;;4927542;29;20570;-68
2022/12/22 15:41:49;;;;;;;4.50;4.00;;;6.20;99.90;;;;;;4928573;29;20657;-69
2022/12/22 15:44:16;;;;;;;21.67;7.68;;;6.20;99.90;;;;;;4929328;29;20200;-68
2022/12/22 15:46:45;;;;;;;6.05;4.43;;;6.20;99.90;;;;;;4930599;29;20214;-69
2022/12/22 15:49:16;;;;;;;3.55;2.97;;;6.20;99.90;;;;;;4928642;29;20211;-68
2022/12/22 15:51:44;;;;;;;11.05;5.18;;;6.10;99.90;;;;;;4927802;29;20771;-69
2022/12/22 15:54:14;;;;;;;5.00;3.75;;;6.10;99.90;;;;;;4931767;29;20207;-68
2022/12/22 15:56:43;;;;;;;9.32;5.97;;;6.00;99.90;;;;;;4918796;29;20254;-68
2022/12/22 15:59:16;;;;;;;8.02;6.20;;;6.00;99.90;;;;;;4933094;29;20211;-69
2022/12/22 16:01:43;;;;;;;6.28;5.43;;;5.90;99.90;;;;;;4925073;29;20224;-69
2022/12/22 16:04:09;;;;;;;15.65;7.82;;;5.90;99.90;;;;;;4924527;29;20239;-68
2022/12/22 16:06:36;;;;;;;10.93;4.45;;;5.90;99.90;;;;;;4928768;29;20280;-68
2022/12/22 16:09:06;;;;;;;10.45;4.38;;;5.90;99.90;;;;;;4932754;29;20243;-68
2022/12/22 16:11:32;;;;;;;8.80;5.47;;;5.90;99.90;;;;;;4926488;29;20227;-68
2022/12/22 16:14:01;;;;;;;6.40;4.28;;;5.80;99.90;;;;;;4924321;29;20210;-68
2022/12/22 16:16:28;;;;;;;6.32;5.82;;;5.80;99.90;;;;;;4932067;29;20414;-69
2022/12/22 16:18:55;;;;;;;6.25;5.30;;;5.80;99.90;;;;;;4932193;29;20210;-69
2022/12/22 16:21:29;;;;;;;6.65;5.75;;;5.80;99.90;;;;;;4922500;29;20231;-70
2022/12/22 16:23:56;;;;;;;7.63;4.63;;;5.80;99.90;;;;;;4920139;29;20783;-70
2022/12/22 16:26:23;;;;;;;8.20;3.55;;;5.80;99.90;;;;;;4929288;29;20670;-70
2022/12/22 16:28:50;;;;;;;4.45;4.25;;;5.80;99.90;;;;;;4927295;29;20263;-69
2022/12/22 16:31:20;;;;;;;8.20;3.55;;;5.80;99.90;;;;;;4932141;29;20243;-69
2022/12/22 16:33:47;;;;;;;31.27;3.50;;;5.80;99.90;;;;;;4925783;29;20580;-68
2022/12/22 16:36:13;;;;;;;7.07;6.38;;;5.90;99.90;;;;;;4923118;29;20607;-69
2022/12/22 16:38:40;;;;;;;3.08;2.88;;;5.90;99.90;;;;;;4924071;29;20607;-69
2022/12/22 16:41:21;;;;;;;3.35;3.13;;;5.90;99.90;;;;;;4933311;29;20236;-69
2022/12/22 16:43:49;;;;;;;3.15;2.35;;;5.90;99.90;;;;;;4923415;29;20648;-69
2022/12/22 16:46:19;;;;;;;2.80;2.60;;;5.80;99.90;;;;;;4920927;29;20215;-68
2022/12/22 16:48:48;;;;;;;5.35;4.18;;;5.80;99.90;;;;;;4916450;29;20220;-68
2022/12/22 16:51:18;;;;;;;11.63;5.63;;;5.80;99.90;;;;;;4930206;29;20249;-68
2022/12/22 16:53:45;;;;;;;7.95;4.05;;;5.80;99.90;;;;;;4929268;29;20624;-68
2022/12/22 16:56:16;;;;;;;5.70;4.35;;;5.80;99.90;;;;;;4926209;29;20241;-68
2022/12/22 16:58:43;;;;;;;4.38;3.95;;;5.80;99.90;;;;;;4934084;29;20597;-68
2022/12/22 17:01:23;;;;;;;4.40;4.10;;;5.80;99.90;;;;;;4926504;29;20228;-68
2022/12/22 17:03:50;;;;;;;6.50;3.70;;;5.80;99.90;;;;;;4929860;29;20284;-68
2022/12/22 17:06:17;;;;;;;6.13;3.35;;;5.90;99.90;;;;;;4931352;29;20220;-68
2022/12/22 17:08:45;;;;;;;8.27;2.33;;;5.90;99.90;;;;;;4928568;29;20732;-68
2022/12/22 17:11:19;;;;;;;6.00;4.00;;;6.00;99.90;;;;;;4925256;29;20231;-69
2022/12/22 17:13:46;;;;;;;6.50;3.50;;;6.00;99.90;;;;;;4923485;29;20215;-69
2022/12/22 17:16:19;;;;;;;5.85;4.55;;;6.00;99.90;;;;;;4923924;29;20235;-69
2022/12/22 17:18:48;;;;;;;5.78;5.20;;;6.10;99.90;;;;;;4918545;29;20207;-68
2022/12/22 17:21:16;;;;;;;4.57;3.35;;;6.10;99.90;;;;;;4933033;29;20239;-68
2022/12/22 17:23:46;;;;;;;3.40;3.20;;;6.10;99.90;;;;;;4931826;29;20220;-69
2022/12/22 17:26:16;;;;;;;6.65;4.85;;;6.10;99.90;;;;;;4930458;29;20210;-70
2022/12/22 17:28:43;;;;;;;6.78;3.67;;;6.10;99.90;;;;;;4928851;29;20309;-69
2022/12/22 17:31:15;;;;;;;4.70;3.50;;;6.10;99.90;;;;;;4931041;29;20358;-69
2022/12/22 17:33:42;;;;;;;9.07;3.67;;;6.10;99.90;;;;;;4931983;29;20240;-69
2022/12/22 17:36:19;;;;;;;14.50;4.30;;;6.10;99.90;;;;;;4930944;29;20243;-70
2022/12/22 17:38:46;;;;;;;7.90;4.72;;;6.10;99.90;;;;;;4927380;29;20285;-69
2022/12/22 17:41:15;;;;;;;6.70;5.63;;;6.20;99.90;;;;;;4930270;29;20710;-69
2022/12/22 17:43:42;;;;;;;5.97;2.88;;;6.20;99.90;;;;;;4933707;29;20255;-69
2022/12/22 17:46:14;;;;;;;15.80;4.47;;;6.20;99.90;;;;;;4930748;29;20215;-69
2022/12/22 17:48:41;;;;;;;4.28;4.03;;;6.20;99.90;;;;;;4918181;29;20242;-68
2022/12/22 17:51:17;;;;;;;7.15;4.63;;;6.20;99.90;;;;;;4932258;29;20231;-69
2022/12/22 17:53:44;;;;;;;4.95;4.55;;;6.20;99.90;;;;;;4926512;29;20285;-69
2022/12/22 17:56:14;;;;;;;2.28;2.17;;;6.30;99.90;;;;;;4931082;29;20240;-69
2022/12/22 17:58:42;;;;;;;7.28;3.20;;;6.30;99.90;;;;;;4925971;29;20214;-69
2022/12/22 18:01:18;;;;;;;5.40;4.05;;;6.30;99.90;;;;;;4925928;29;20238;-69
2022/12/22 18:03:45;;;;;;;4.45;3.35;;;6.30;99.90;;;;;;4926592;29;20639;-69
2022/12/22 18:06:14;;;;;;;4.22;4.03;;;6.40;99.90;;;;;;4919045;29;20233;-69
2022/12/22 18:08:42;;;;;;;4.63;4.22;;;6.40;99.90;;;;;;4924133;29;20261;-69
2022/12/22 18:11:09;;;;;;;3.90;3.60;;;6.40;99.90;;;;;;4925143;29;20246;-69
2022/12/22 18:13:36;;;;;;;3.05;2.55;;;6.40;99.90;;;;;;4929138;29;20365;-69
2022/12/22 18:16:03;;;;;;;5.72;4.82;;;6.40;99.90;;;;;;4927236;29;20234;-69
2022/12/22 18:18:31;;;;;;;4.65;4.18;;;6.40;99.90;;;;;;4914453;29;20213;-69
2022/12/22 18:20:57;;;;;;;8.48;4.30;;;6.40;99.90;;;;;;4925676;29;20549;-69
2022/12/22 18:23:28;;;;;;;5.53;4.03;;;6.40;99.90;;;;;;4980471;23;20238;-68
2022/12/22 18:25:55;;;;;;;3.10;2.55;;;6.50;99.90;;;;;;4957807;28;20704;-68